Oelde Bergeler Airport


Codes: EDLU/
Name: Oelde Bergeler Airport
City:
Country: Germany
Elevation: 269 ft.

Photos at Oelde Bergeler Airport


   Photos courtesy of SpottingLog. You can add your own sightings and photos by signing up for a free trial today.



No photos found.

Weather at Oelde Bergeler Airport


Time (UTC)DescriptionTempratureWindCloud coverageVisibilityPressureHumidity
16-Jun-2024 12:00Light Rain19°C18 mph, SW93%10000m1008hPa58%
16-Jun-2024 15:00Light Rain16°C11 mph, SW97%10000m1008hPa77%
16-Jun-2024 18:00Light Rain14°C9 mph, SW100%10000m1008hPa89%
16-Jun-2024 21:00Light Rain12°C9 mph, SW96%10000m1010hPa94%
17-Jun-2024 00:00Broken Clouds11°C7 mph, SW75%10000m1011hPa96%
17-Jun-2024 03:00Overcast Clouds12°C7 mph, S99%10000m1011hPa96%
17-Jun-2024 06:00Light Rain15°C9 mph, SW99%10000m1012hPa90%
17-Jun-2024 09:00Light Rain17°C11 mph, SW94%10000m1013hPa83%
17-Jun-2024 12:00Light Rain19°C11 mph, SW95%10000m1013hPa71%
17-Jun-2024 15:00Light Rain20°C11 mph, W80%10000m1013hPa66%
17-Jun-2024 18:00Light Rain18°C4 mph, NW86%10000m1013hPa80%
17-Jun-2024 21:00Overcast Clouds14°C0 mph, S100%10000m1015hPa86%
18-Jun-2024 00:00Overcast Clouds13°C2 mph, SW100%10000m1015hPa91%
18-Jun-2024 03:00Overcast Clouds13°C2 mph, SW99%10000m1015hPa92%
18-Jun-2024 06:00Overcast Clouds16°C2 mph, S100%10000m1016hPa86%
18-Jun-2024 09:00Overcast Clouds20°C0 mph, E87%10000m1016hPa71%
18-Jun-2024 12:00Light Rain23°C0 mph, SE59%10000m1014hPa62%
18-Jun-2024 15:00Moderate Rain17°C4 mph, NW94%3645m1013hPa94%
18-Jun-2024 18:00Moderate Rain16°C7 mph, NW97%3870m1014hPa97%
18-Jun-2024 21:00Moderate Rain14°C2 mph, NE100%10000m1015hPa96%
19-Jun-2024 00:00Light Rain13°C7 mph, NW100%10000m1016hPa97%
19-Jun-2024 03:00Light Rain11°C7 mph, NW74%10000m1018hPa96%
19-Jun-2024 06:00Scattered Clouds13°C7 mph, NW47%10000m1021hPa90%
19-Jun-2024 09:00Overcast Clouds16°C9 mph, NW87%10000m1022hPa70%
19-Jun-2024 12:00Overcast Clouds18°C11 mph, NW85%10000m1023hPa60%
19-Jun-2024 15:00Broken Clouds18°C9 mph, NW55%10000m1023hPa56%
19-Jun-2024 18:00Broken Clouds17°C4 mph, N64%10000m1023hPa73%
19-Jun-2024 21:00Broken Clouds12°C4 mph, NE59%10000m1024hPa82%
20-Jun-2024 00:00Scattered Clouds10°C4 mph, E43%10000m1023hPa90%
20-Jun-2024 03:00Clear Sky9°C4 mph, E0%10000m1022hPa91%
20-Jun-2024 06:00Clear Sky13°C7 mph, E1%10000m1021hPa79%
20-Jun-2024 09:00Few Clouds19°C4 mph, E23%10000m1020hPa63%
20-Jun-2024 12:00Broken Clouds23°C4 mph, NE54%10000m1018hPa56%
20-Jun-2024 15:00Broken Clouds24°C11 mph, E82%10000m1015hPa63%
20-Jun-2024 18:00Broken Clouds21°C11 mph, E67%10000m1013hPa77%
20-Jun-2024 21:00Light Rain20°C9 mph, E79%10000m1011hPa77%
21-Jun-2024 00:00Light Rain17°C11 mph, E89%10000m1010hPa94%
21-Jun-2024 03:00Overcast Clouds17°C7 mph, E88%10000m1008hPa94%
21-Jun-2024 06:00Broken Clouds21°C13 mph, SW57%10000m1009hPa93%
21-Jun-2024 09:00Light Rain22°C18 mph, SW84%10000m1010hPa81%